Leary, Georgia
Current Conditions -  °F | °C
As of 6:53 PM on Friday 28 Nov 2014 (Local Time) from KABY Reporting Station
Clear Clear  
Wind Chill: 41°   Ceiling: Unl
Heat Index: 41°   Visibility: 10mi
Dew Point: 33°   Wind: 0mph
Humidity: 73%   Direction: NA
Pressure: 30.34"   Gusts: NA
Location:  31.49°N, 84.51°W
Report Text: KABY 282353Z 00000KT 10SM CLR 05/01 A3034 RMK AO2 SLP275 T00500006 10122 20050 53000 $
Loading
Personal Weather Stations






























Interactive Weather Map New forecast layout! Learn more

10-Day Weather Forecast

Advertisements
Track Severe Weather on mobile